sensor_id;sensor_type;location;lat;lon;timestamp;temperature;humidity
23403;DHT22;11874;48.228;11.684;2022-12-13T00:01:28;-2.30;99.90
23403;DHT22;11874;48.228;11.684;2022-12-13T00:03:59;-2.30;99.90
23403;DHT22;11874;48.228;11.684;2022-12-13T00:06:28;-2.30;99.90
23403;DHT22;11874;48.228;11.684;2022-12-13T00:08:56;-2.30;99.90
23403;DHT22;11874;48.228;11.684;2022-12-13T00:11:25;-2.30;99.90
23403;DHT22;11874;48.228;11.684;2022-12-13T00:13:53;-2.30;99.90
23403;DHT22;11874;48.228;11.684;2022-12-13T00:16:23;-2.30;99.90
23403;DHT22;11874;48.228;11.684;2022-12-13T00:18:53;-2.40;99.90
23403;DHT22;11874;48.228;11.684;2022-12-13T00:21:24;-2.40;99.90
23403;DHT22;11874;48.228;11.684;2022-12-13T00:23:53;-2.40;99.90
23403;DHT22;11874;48.228;11.684;2022-12-13T00:26:22;-2.50;99.90
23403;DHT22;11874;48.228;11.684;2022-12-13T00:28:50;-2.50;99.90
23403;DHT22;11874;48.228;11.684;2022-12-13T00:31:21;-2.50;99.90
23403;DHT22;11874;48.228;11.684;2022-12-13T00:34:10;-2.50;99.90
23403;DHT22;11874;48.228;11.684;2022-12-13T00:36:39;-2.50;99.90
23403;DHT22;11874;48.228;11.684;2022-12-13T00:39:07;-2.60;99.90
23403;DHT22;11874;48.228;11.684;2022-12-13T00:41:38;-2.70;99.90
23403;DHT22;11874;48.228;11.684;2022-12-13T00:44:06;-2.70;99.90
23403;DHT22;11874;48.228;11.684;2022-12-13T00:46:34;-2.70;99.90
23403;DHT22;11874;48.228;11.684;2022-12-13T00:49:02;-2.70;99.90
23403;DHT22;11874;48.228;11.684;2022-12-13T00:51:32;-2.80;99.90
23403;DHT22;11874;48.228;11.684;2022-12-13T00:54:01;-2.80;99.90
23403;DHT22;11874;48.228;11.684;2022-12-13T00:56:31;-2.90;99.90
23403;DHT22;11874;48.228;11.684;2022-12-13T00:58:59;-2.80;99.90
23403;DHT22;11874;48.228;11.684;2022-12-13T01:01:30;-2.80;99.90
23403;DHT22;11874;48.228;11.684;2022-12-13T01:04:00;-2.90;99.90
23403;DHT22;11874;48.228;11.684;2022-12-13T01:06:31;-2.80;99.90
23403;DHT22;11874;48.228;11.684;2022-12-13T01:09:03;-2.80;99.90
23403;DHT22;11874;48.228;11.684;2022-12-13T01:11:31;-2.70;99.90
23403;DHT22;11874;48.228;11.684;2022-12-13T01:13:59;-2.80;99.90
23403;DHT22;11874;48.228;11.684;2022-12-13T01:16:27;-2.80;99.90
23403;DHT22;11874;48.228;11.684;2022-12-13T01:18:56;-2.80;99.90
23403;DHT22;11874;48.228;11.684;2022-12-13T01:21:24;-2.80;99.90
23403;DHT22;11874;48.228;11.684;2022-12-13T01:23:51;-2.80;99.90
23403;DHT22;11874;48.228;11.684;2022-12-13T01:26:21;-2.80;99.90
23403;DHT22;11874;48.228;11.684;2022-12-13T01:28:49;-2.80;99.90
23403;DHT22;11874;48.228;11.684;2022-12-13T01:31:20;-2.90;99.90
23403;DHT22;11874;48.228;11.684;2022-12-13T01:33:48;-2.90;99.90
23403;DHT22;11874;48.228;11.684;2022-12-13T01:36:18;-3.00;99.90
23403;DHT22;11874;48.228;11.684;2022-12-13T01:38:54;-3.00;99.90
23403;DHT22;11874;48.228;11.684;2022-12-13T01:41:27;-2.90;99.90
23403;DHT22;11874;48.228;11.684;2022-12-13T01:43:57;-3.00;99.90
23403;DHT22;11874;48.228;11.684;2022-12-13T01:46:29;-2.90;99.90
23403;DHT22;11874;48.228;11.684;2022-12-13T01:49:02;-2.90;99.90
23403;DHT22;11874;48.228;11.684;2022-12-13T01:51:48;-2.90;99.90
23403;DHT22;11874;48.228;11.684;2022-12-13T01:54:20;-2.90;99.90
23403;DHT22;11874;48.228;11.684;2022-12-13T01:56:53;-2.90;99.90
23403;DHT22;11874;48.228;11.684;2022-12-13T01:59:27;-3.00;99.90
23403;DHT22;11874;48.228;11.684;2022-12-13T02:01:55;-3.00;99.90
23403;DHT22;11874;48.228;11.684;2022-12-13T02:04:30;-3.10;99.90
23403;DHT22;11874;48.228;11.684;2022-12-13T02:06:59;-3.10;99.90
23403;DHT22;11874;48.228;11.684;2022-12-13T02:09:27;-3.10;99.90
23403;DHT22;11874;48.228;11.684;2022-12-13T02:11:57;-3.20;99.90
23403;DHT22;11874;48.228;11.684;2022-12-13T02:14:25;-3.10;99.90
23403;DHT22;11874;48.228;11.684;2022-12-13T02:16:58;-3.10;99.90
23403;DHT22;11874;48.228;11.684;2022-12-13T02:22:47;-3.10;99.90
23403;DHT22;11874;48.228;11.684;2022-12-13T02:25:43;-3.20;99.90
23403;DHT22;11874;48.228;11.684;2022-12-13T02:28:31;-3.20;99.90
23403;DHT22;11874;48.228;11.684;2022-12-13T02:31:10;-3.20;99.90
23403;DHT22;11874;48.228;11.684;2022-12-13T02:33:47;-3.20;99.90
23403;DHT22;11874;48.228;11.684;2022-12-13T02:36:21;-3.30;99.90
23403;DHT22;11874;48.228;11.684;2022-12-13T02:39:08;-3.30;99.90
23403;DHT22;11874;48.228;11.684;2022-12-13T02:41:40;-3.30;99.90
23403;DHT22;11874;48.228;11.684;2022-12-13T02:44:16;-3.30;99.90
23403;DHT22;11874;48.228;11.684;2022-12-13T02:46:52;-3.30;99.90
23403;DHT22;11874;48.228;11.684;2022-12-13T02:49:23;-3.20;99.90
23403;DHT22;11874;48.228;11.684;2022-12-13T02:51:52;-3.30;99.90
23403;DHT22;11874;48.228;11.684;2022-12-13T02:54:22;-3.30;99.90
23403;DHT22;11874;48.228;11.684;2022-12-13T02:56:54;-3.30;99.90
23403;DHT22;11874;48.228;11.684;2022-12-13T02:59:23;-3.30;99.90
23403;DHT22;11874;48.228;11.684;2022-12-13T03:02:01;-3.30;99.90
23403;DHT22;11874;48.228;11.684;2022-12-13T03:04:43;-3.40;99.90
23403;DHT22;11874;48.228;11.684;2022-12-13T03:07:34;-3.40;99.90
23403;DHT22;11874;48.228;11.684;2022-12-13T03:10:09;-3.40;99.90
23403;DHT22;11874;48.228;11.684;2022-12-13T03:12:44;-3.40;99.90
23403;DHT22;11874;48.228;11.684;2022-12-13T03:15:37;-3.40;99.90
23403;DHT22;11874;48.228;11.684;2022-12-13T03:18:12;-3.50;99.90
23403;DHT22;11874;48.228;11.684;2022-12-13T03:20:45;-3.50;99.90
23403;DHT22;11874;48.228;11.684;2022-12-13T03:23:14;-3.60;99.90
23403;DHT22;11874;48.228;11.684;2022-12-13T03:25:42;-3.60;99.90
23403;DHT22;11874;48.228;11.684;2022-12-13T03:28:10;-3.60;99.90
23403;DHT22;11874;48.228;11.684;2022-12-13T03:30:39;-3.60;99.90
23403;DHT22;11874;48.228;11.684;2022-12-13T03:33:06;-3.70;99.90
23403;DHT22;11874;48.228;11.684;2022-12-13T03:35:36;-3.80;99.90
23403;DHT22;11874;48.228;11.684;2022-12-13T03:38:12;-3.70;99.90
23403;DHT22;11874;48.228;11.684;2022-12-13T03:40:50;-3.80;99.90
23403;DHT22;11874;48.228;11.684;2022-12-13T03:43:18;-3.80;99.90
23403;DHT22;11874;48.228;11.684;2022-12-13T03:45:49;-3.90;99.90
23403;DHT22;11874;48.228;11.684;2022-12-13T03:48:17;-3.90;99.90
23403;DHT22;11874;48.228;11.684;2022-12-13T03:50:50;-3.90;99.90
23403;DHT22;11874;48.228;11.684;2022-12-13T03:53:19;-3.90;99.90
23403;DHT22;11874;48.228;11.684;2022-12-13T03:55:58;-3.90;99.90
23403;DHT22;11874;48.228;11.684;2022-12-13T03:58:27;-3.90;99.90
23403;DHT22;11874;48.228;11.684;2022-12-13T04:01:02;-3.90;99.90
23403;DHT22;11874;48.228;11.684;2022-12-13T04:03:31;-3.90;99.90
23403;DHT22;11874;48.228;11.684;2022-12-13T04:06:00;-3.90;99.90
23403;DHT22;11874;48.228;11.684;2022-12-13T04:08:28;-3.90;99.90
23403;DHT22;11874;48.228;11.684;2022-12-13T04:10:56;-3.90;99.90
23403;DHT22;11874;48.228;11.684;2022-12-13T04:13:24;-3.90;99.90
23403;DHT22;11874;48.228;11.684;2022-12-13T04:16:00;-4.00;99.90
23403;DHT22;11874;48.228;11.684;2022-12-13T04:18:29;-4.00;99.90
23403;DHT22;11874;48.228;11.684;2022-12-13T04:20:57;-4.00;99.90
23403;DHT22;11874;48.228;11.684;2022-12-13T04:23:26;-4.00;99.90
23403;DHT22;11874;48.228;11.684;2022-12-13T04:25:54;-4.00;99.90
23403;DHT22;11874;48.228;11.684;2022-12-13T04:28:21;-4.10;99.90
23403;DHT22;11874;48.228;11.684;2022-12-13T04:30:49;-4.10;99.90
23403;DHT22;11874;48.228;11.684;2022-12-13T04:33:19;-4.10;99.90
23403;DHT22;11874;48.228;11.684;2022-12-13T04:35:48;-4.00;99.90
23403;DHT22;11874;48.228;11.684;2022-12-13T04:38:16;-4.00;99.90
23403;DHT22;11874;48.228;11.684;2022-12-13T04:40:45;-4.10;99.90
23403;DHT22;11874;48.228;11.684;2022-12-13T04:43:13;-4.10;99.90
23403;DHT22;11874;48.228;11.684;2022-12-13T04:45:41;-4.10;99.90
23403;DHT22;11874;48.228;11.684;2022-12-13T04:48:09;-4.10;99.90
23403;DHT22;11874;48.228;11.684;2022-12-13T04:50:37;-4.10;99.90
23403;DHT22;11874;48.228;11.684;2022-12-13T04:53:04;-4.10;99.90
23403;DHT22;11874;48.228;11.684;2022-12-13T04:55:32;-4.10;99.90
23403;DHT22;11874;48.228;11.684;2022-12-13T04:58:01;-4.10;99.90
23403;DHT22;11874;48.228;11.684;2022-12-13T05:00:29;-4.10;99.90
23403;DHT22;11874;48.228;11.684;2022-12-13T05:02:57;-4.10;99.90
23403;DHT22;11874;48.228;11.684;2022-12-13T05:05:25;-4.10;99.90
23403;DHT22;11874;48.228;11.684;2022-12-13T05:07:53;-4.20;99.90
23403;DHT22;11874;48.228;11.684;2022-12-13T05:10:21;-4.20;99.90
23403;DHT22;11874;48.228;11.684;2022-12-13T05:13:05;-4.20;99.90
23403;DHT22;11874;48.228;11.684;2022-12-13T05:15:33;-4.20;99.90
23403;DHT22;11874;48.228;11.684;2022-12-13T05:18:02;-4.10;99.90
23403;DHT22;11874;48.228;11.684;2022-12-13T05:20:36;-4.20;99.90
23403;DHT22;11874;48.228;11.684;2022-12-13T05:23:04;-4.10;99.90
23403;DHT22;11874;48.228;11.684;2022-12-13T05:25:32;-4.10;99.90
23403;DHT22;11874;48.228;11.684;2022-12-13T05:28:04;-4.20;99.90
23403;DHT22;11874;48.228;11.684;2022-12-13T05:30:52;-4.10;99.90
23403;DHT22;11874;48.228;11.684;2022-12-13T05:33:21;-4.20;99.90
23403;DHT22;11874;48.228;11.684;2022-12-13T05:35:49;-4.20;99.90
23403;DHT22;11874;48.228;11.684;2022-12-13T05:38:25;-4.20;99.90
23403;DHT22;11874;48.228;11.684;2022-12-13T05:40:53;-4.20;99.90
23403;DHT22;11874;48.228;11.684;2022-12-13T05:43:22;-4.20;99.90
23403;DHT22;11874;48.228;11.684;2022-12-13T05:46:09;-4.20;99.90
23403;DHT22;11874;48.228;11.684;2022-12-13T05:48:37;-4.20;99.90
23403;DHT22;11874;48.228;11.684;2022-12-13T05:51:05;-4.10;99.90
23403;DHT22;11874;48.228;11.684;2022-12-13T05:53:38;-4.20;99.90
23403;DHT22;11874;48.228;11.684;2022-12-13T05:56:07;-4.20;99.90
23403;DHT22;11874;48.228;11.684;2022-12-13T05:58:38;-4.20;99.90
23403;DHT22;11874;48.228;11.684;2022-12-13T06:01:07;-4.20;99.90
23403;DHT22;11874;48.228;11.684;2022-12-13T06:03:36;-4.20;99.90
23403;DHT22;11874;48.228;11.684;2022-12-13T06:06:05;-4.20;99.90
23403;DHT22;11874;48.228;11.684;2022-12-13T06:08:34;-4.20;99.90
23403;DHT22;11874;48.228;11.684;2022-12-13T06:11:04;-4.30;99.90
23403;DHT22;11874;48.228;11.684;2022-12-13T06:13:40;-4.40;99.90
23403;DHT22;11874;48.228;11.684;2022-12-13T06:16:11;-4.40;99.90
23403;DHT22;11874;48.228;11.684;2022-12-13T06:18:50;-4.40;99.90
23403;DHT22;11874;48.228;11.684;2022-12-13T06:21:29;-4.40;99.90
23403;DHT22;11874;48.228;11.684;2022-12-13T06:24:13;-4.40;99.90
23403;DHT22;11874;48.228;11.684;2022-12-13T06:26:41;-4.40;99.90
23403;DHT22;11874;48.228;11.684;2022-12-13T06:29:13;-4.40;99.90
23403;DHT22;11874;48.228;11.684;2022-12-13T06:31:52;-4.40;99.90
23403;DHT22;11874;48.228;11.684;2022-12-13T06:34:29;-4.40;99.90
23403;DHT22;11874;48.228;11.684;2022-12-13T06:36:58;-4.40;99.90
23403;DHT22;11874;48.228;11.684;2022-12-13T06:39:26;-4.40;99.90
23403;DHT22;11874;48.228;11.684;2022-12-13T06:41:58;-4.40;99.90
23403;DHT22;11874;48.228;11.684;2022-12-13T06:44:28;-4.40;99.90
23403;DHT22;11874;48.228;11.684;2022-12-13T06:46:56;-4.30;99.90
23403;DHT22;11874;48.228;11.684;2022-12-13T06:49:38;-4.40;99.90
23403;DHT22;11874;48.228;11.684;2022-12-13T06:52:08;-4.30;99.90
23403;DHT22;11874;48.228;11.684;2022-12-13T06:54:37;-4.30;99.90
23403;DHT22;11874;48.228;11.684;2022-12-13T06:57:05;-4.40;99.90
23403;DHT22;11874;48.228;11.684;2022-12-13T06:59:34;-4.30;99.90
23403;DHT22;11874;48.228;11.684;2022-12-13T07:02:02;-4.30;99.90
23403;DHT22;11874;48.228;11.684;2022-12-13T07:04:30;-4.30;99.90
23403;DHT22;11874;48.228;11.684;2022-12-13T07:06:58;-4.30;99.90
23403;DHT22;11874;48.228;11.684;2022-12-13T07:09:27;-4.20;99.90
23403;DHT22;11874;48.228;11.684;2022-12-13T07:11:55;-4.20;99.90
23403;DHT22;11874;48.228;11.684;2022-12-13T07:14:23;-4.10;99.90
23403;DHT22;11874;48.228;11.684;2022-12-13T07:16:52;-4.10;99.90
23403;DHT22;11874;48.228;11.684;2022-12-13T07:19:29;-4.10;99.90
23403;DHT22;11874;48.228;11.684;2022-12-13T07:22:01;-4.10;99.90
23403;DHT22;11874;48.228;11.684;2022-12-13T07:24:31;-4.00;99.90
23403;DHT22;11874;48.228;11.684;2022-12-13T07:26:59;-4.00;99.90
23403;DHT22;11874;48.228;11.684;2022-12-13T07:29:28;-3.90;99.90
23403;DHT22;11874;48.228;11.684;2022-12-13T07:31:57;-3.90;99.90
23403;DHT22;11874;48.228;11.684;2022-12-13T07:34:27;-3.90;99.90
23403;DHT22;11874;48.228;11.684;2022-12-13T07:36:56;-3.90;99.90
23403;DHT22;11874;48.228;11.684;2022-12-13T07:39:24;-3.90;99.90
23403;DHT22;11874;48.228;11.684;2022-12-13T07:41:53;-3.90;99.90
23403;DHT22;11874;48.228;11.684;2022-12-13T07:44:21;-3.90;99.90
23403;DHT22;11874;48.228;11.684;2022-12-13T07:46:49;-3.90;99.90
23403;DHT22;11874;48.228;11.684;2022-12-13T07:49:18;-3.90;99.90
23403;DHT22;11874;48.228;11.684;2022-12-13T07:51:46;-3.90;99.90
23403;DHT22;11874;48.228;11.684;2022-12-13T07:54:15;-3.80;99.90
23403;DHT22;11874;48.228;11.684;2022-12-13T07:56:43;-3.80;99.90
23403;DHT22;11874;48.228;11.684;2022-12-13T07:59:11;-3.80;99.90
23403;DHT22;11874;48.228;11.684;2022-12-13T08:01:39;-3.70;99.90
23403;DHT22;11874;48.228;11.684;2022-12-13T08:04:07;-3.80;99.90
23403;DHT22;11874;48.228;11.684;2022-12-13T08:06:37;-3.80;99.90
23403;DHT22;11874;48.228;11.684;2022-12-13T08:09:05;-3.80;99.90
23403;DHT22;11874;48.228;11.684;2022-12-13T08:11:33;-3.70;99.90
23403;DHT22;11874;48.228;11.684;2022-12-13T08:14:01;-3.70;99.90
23403;DHT22;11874;48.228;11.684;2022-12-13T08:16:29;-3.70;99.90
23403;DHT22;11874;48.228;11.684;2022-12-13T08:18:58;-3.70;99.90
23403;DHT22;11874;48.228;11.684;2022-12-13T08:21:32;-3.70;99.90
23403;DHT22;11874;48.228;11.684;2022-12-13T08:24:21;-3.70;99.90
23403;DHT22;11874;48.228;11.684;2022-12-13T08:26:50;-3.60;99.90
23403;DHT22;11874;48.228;11.684;2022-12-13T08:29:18;-3.60;99.90
23403;DHT22;11874;48.228;11.684;2022-12-13T08:31:58;-3.60;99.90
23403;DHT22;11874;48.228;11.684;2022-12-13T08:34:27;-3.50;99.90
23403;DHT22;11874;48.228;11.684;2022-12-13T08:36:55;-3.60;99.90
23403;DHT22;11874;48.228;11.684;2022-12-13T08:39:29;-3.50;99.90
23403;DHT22;11874;48.228;11.684;2022-12-13T08:42:01;-3.50;99.90
23403;DHT22;11874;48.228;11.684;2022-12-13T08:44:41;-3.60;99.90
23403;DHT22;11874;48.228;11.684;2022-12-13T08:47:09;-3.60;99.90
23403;DHT22;11874;48.228;11.684;2022-12-13T08:49:37;-3.50;99.90
23403;DHT22;11874;48.228;11.684;2022-12-13T08:52:06;-3.50;99.90
23403;DHT22;11874;48.228;11.684;2022-12-13T08:54:36;-3.40;99.90
23403;DHT22;11874;48.228;11.684;2022-12-13T08:57:03;-3.40;99.90
23403;DHT22;11874;48.228;11.684;2022-12-13T08:59:31;-3.40;99.90
23403;DHT22;11874;48.228;11.684;2022-12-13T09:01:59;-3.40;99.90
23403;DHT22;11874;48.228;11.684;2022-12-13T09:04:31;-3.40;99.90
23403;DHT22;11874;48.228;11.684;2022-12-13T09:06:58;-3.40;99.90
23403;DHT22;11874;48.228;11.684;2022-12-13T09:09:27;-3.30;99.90
23403;DHT22;11874;48.228;11.684;2022-12-13T09:11:57;-3.30;99.90
23403;DHT22;11874;48.228;11.684;2022-12-13T09:14:26;-3.20;99.90
23403;DHT22;11874;48.228;11.684;2022-12-13T09:16:59;-3.10;99.90
23403;DHT22;11874;48.228;11.684;2022-12-13T09:19:29;-3.10;99.90
23403;DHT22;11874;48.228;11.684;2022-12-13T09:22:03;-3.10;99.90
23403;DHT22;11874;48.228;11.684;2022-12-13T09:24:40;-3.10;99.90
23403;DHT22;11874;48.228;11.684;2022-12-13T09:27:17;-3.10;99.90
23403;DHT22;11874;48.228;11.684;2022-12-13T09:29:54;-3.10;99.90
23403;DHT22;11874;48.228;11.684;2022-12-13T09:32:22;-3.00;99.90
23403;DHT22;11874;48.228;11.684;2022-12-13T09:34:50;-3.00;99.90
23403;DHT22;11874;48.228;11.684;2022-12-13T09:37:18;-3.00;99.90
23403;DHT22;11874;48.228;11.684;2022-12-13T09:39:49;-3.10;99.90
23403;DHT22;11874;48.228;11.684;2022-12-13T09:42:24;-3.00;99.90
23403;DHT22;11874;48.228;11.684;2022-12-13T09:44:58;-3.10;99.90
23403;DHT22;11874;48.228;11.684;2022-12-13T09:47:32;-3.00;99.90
23403;DHT22;11874;48.228;11.684;2022-12-13T09:50:06;-3.00;99.90
23403;DHT22;11874;48.228;11.684;2022-12-13T09:52:42;-3.00;99.90
23403;DHT22;11874;48.228;11.684;2022-12-13T09:55:18;-3.10;99.90
23403;DHT22;11874;48.228;11.684;2022-12-13T09:57:48;-3.10;99.90
23403;DHT22;11874;48.228;11.684;2022-12-13T10:00:19;-3.10;99.90
23403;DHT22;11874;48.228;11.684;2022-12-13T10:02:48;-3.10;99.90
23403;DHT22;11874;48.228;11.684;2022-12-13T10:05:21;-3.10;99.90
23403;DHT22;11874;48.228;11.684;2022-12-13T10:08:05;-3.10;99.90
23403;DHT22;11874;48.228;11.684;2022-12-13T10:10:34;-3.10;99.90
23403;DHT22;11874;48.228;11.684;2022-12-13T10:13:10;-3.10;99.90
23403;DHT22;11874;48.228;11.684;2022-12-13T10:15:45;-3.10;99.90
23403;DHT22;11874;48.228;11.684;2022-12-13T10:18:20;-3.00;99.90
23403;DHT22;11874;48.228;11.684;2022-12-13T10:20:52;-3.00;99.90
23403;DHT22;11874;48.228;11.684;2022-12-13T10:23:20;-3.00;99.90
23403;DHT22;11874;48.228;11.684;2022-12-13T10:26:09;-3.00;99.90
23403;DHT22;11874;48.228;11.684;2022-12-13T10:29:00;-2.90;99.90
23403;DHT22;11874;48.228;11.684;2022-12-13T10:31:29;-2.90;99.90
23403;DHT22;11874;48.228;11.684;2022-12-13T10:34:06;-2.90;99.90
23403;DHT22;11874;48.228;11.684;2022-12-13T10:36:39;-2.90;99.90
23403;DHT22;11874;48.228;11.684;2022-12-13T10:39:15;-2.90;99.90
23403;DHT22;11874;48.228;11.684;2022-12-13T10:41:43;-2.80;99.90
23403;DHT22;11874;48.228;11.684;2022-12-13T10:44:22;-2.80;99.90
23403;DHT22;11874;48.228;11.684;2022-12-13T10:47:11;-2.80;99.90
23403;DHT22;11874;48.228;11.684;2022-12-13T10:49:49;-2.80;99.90
23403;DHT22;11874;48.228;11.684;2022-12-13T10:52:27;-2.70;99.90
23403;DHT22;11874;48.228;11.684;2022-12-13T10:54:59;-2.70;99.90
23403;DHT22;11874;48.228;11.684;2022-12-13T10:57:28;-2.80;99.90
23403;DHT22;11874;48.228;11.684;2022-12-13T10:59:58;-2.70;99.90
23403;DHT22;11874;48.228;11.684;2022-12-13T11:02:34;-2.60;99.90
23403;DHT22;11874;48.228;11.684;2022-12-13T11:05:24;-2.70;99.90
23403;DHT22;11874;48.228;11.684;2022-12-13T11:07:52;-2.70;99.90
23403;DHT22;11874;48.228;11.684;2022-12-13T11:10:28;-2.60;99.90
23403;DHT22;11874;48.228;11.684;2022-12-13T11:12:59;-2.60;99.90
23403;DHT22;11874;48.228;11.684;2022-12-13T11:15:31;-2.60;99.90
23403;DHT22;11874;48.228;11.684;2022-12-13T11:18:01;-2.60;99.90
23403;DHT22;11874;48.228;11.684;2022-12-13T11:20:33;-2.50;99.90
23403;DHT22;11874;48.228;11.684;2022-12-13T11:23:04;-2.60;99.90
23403;DHT22;11874;48.228;11.684;2022-12-13T11:25:37;-2.60;99.90
23403;DHT22;11874;48.228;11.684;2022-12-13T11:28:16;-2.60;99.90
23403;DHT22;11874;48.228;11.684;2022-12-13T11:31:11;-2.50;99.90
23403;DHT22;11874;48.228;11.684;2022-12-13T11:33:48;-2.50;99.90
23403;DHT22;11874;48.228;11.684;2022-12-13T11:36:26;-2.50;99.90
23403;DHT22;11874;48.228;11.684;2022-12-13T11:39:09;-2.40;99.90
23403;DHT22;11874;48.228;11.684;2022-12-13T11:41:47;-2.40;99.90
23403;DHT22;11874;48.228;11.684;2022-12-13T11:44:20;-2.30;99.90
23403;DHT22;11874;48.228;11.684;2022-12-13T11:46:54;-2.30;99.90
23403;DHT22;11874;48.228;11.684;2022-12-13T11:49:35;-2.30;99.90
23403;DHT22;11874;48.228;11.684;2022-12-13T11:52:11;-2.20;99.90
23403;DHT22;11874;48.228;11.684;2022-12-13T11:54:47;-2.20;99.90
23403;DHT22;11874;48.228;11.684;2022-12-13T11:57:24;-2.20;99.90
23403;DHT22;11874;48.228;11.684;2022-12-13T12:00:00;-2.10;99.90
23403;DHT22;11874;48.228;11.684;2022-12-13T12:02:43;-2.10;99.90
23403;DHT22;11874;48.228;11.684;2022-12-13T12:05:24;-2.10;99.90
23403;DHT22;11874;48.228;11.684;2022-12-13T12:07:58;-2.00;99.90
23403;DHT22;11874;48.228;11.684;2022-12-13T12:10:53;-2.00;99.90
23403;DHT22;11874;48.228;11.684;2022-12-13T12:13:29;-1.90;99.90
23403;DHT22;11874;48.228;11.684;2022-12-13T12:16:06;-1.90;99.90
23403;DHT22;11874;48.228;11.684;2022-12-13T12:18:36;-1.80;99.90
23403;DHT22;11874;48.228;11.684;2022-12-13T12:21:12;-1.80;99.90
23403;DHT22;11874;48.228;11.684;2022-12-13T12:23:55;-1.80;99.90
23403;DHT22;11874;48.228;11.684;2022-12-13T12:26:30;-1.70;99.90
23403;DHT22;11874;48.228;11.684;2022-12-13T12:29:15;-1.70;99.90
23403;DHT22;11874;48.228;11.684;2022-12-13T12:31:52;-1.60;99.90
23403;DHT22;11874;48.228;11.684;2022-12-13T12:34:32;-1.70;99.90
23403;DHT22;11874;48.228;11.684;2022-12-13T12:37:08;-1.40;99.90
23403;DHT22;11874;48.228;11.684;2022-12-13T12:39:57;-1.10;99.90
23403;DHT22;11874;48.228;11.684;2022-12-13T12:42:43;-1.30;99.90
23403;DHT22;11874;48.228;11.684;2022-12-13T12:45:44;-1.00;99.90
23403;DHT22;11874;48.228;11.684;2022-12-13T12:48:34;-1.20;99.90
23403;DHT22;11874;48.228;11.684;2022-12-13T12:51:32;-1.00;99.90
23403;DHT22;11874;48.228;11.684;2022-12-13T12:54:16;-1.20;99.90
23403;DHT22;11874;48.228;11.684;2022-12-13T12:57:03;-1.00;99.90
23403;DHT22;11874;48.228;11.684;2022-12-13T12:59:38;-1.00;99.90
23403;DHT22;11874;48.228;11.684;2022-12-13T13:02:16;-0.90;99.90
23403;DHT22;11874;48.228;11.684;2022-12-13T13:04:47;-0.90;99.90
23403;DHT22;11874;48.228;11.684;2022-12-13T13:07:21;-0.70;99.90
23403;DHT22;11874;48.228;11.684;2022-12-13T13:09:50;-0.60;99.90
23403;DHT22;11874;48.228;11.684;2022-12-13T13:12:21;-0.50;99.90
23403;DHT22;11874;48.228;11.684;2022-12-13T13:14:57;-0.70;99.90
23403;DHT22;11874;48.228;11.684;2022-12-13T13:17:45;-0.50;99.90
23403;DHT22;11874;48.228;11.684;2022-12-13T13:20:19;-0.30;99.90
23403;DHT22;11874;48.228;11.684;2022-12-13T13:22:51;-0.40;99.90
23403;DHT22;11874;48.228;11.684;2022-12-13T13:25:54;-0.30;99.90
23403;DHT22;11874;48.228;11.684;2022-12-13T13:28:42;-0.30;99.90
23403;DHT22;11874;48.228;11.684;2022-12-13T13:31:10;0.00;99.90
23403;DHT22;11874;48.228;11.684;2022-12-13T13:33:44;-0.20;99.90
23403;DHT22;11874;48.228;11.684;2022-12-13T13:36:46;-0.40;99.90
23403;DHT22;11874;48.228;11.684;2022-12-13T13:39:37;-0.30;99.90
23403;DHT22;11874;48.228;11.684;2022-12-13T13:42:16;-0.50;99.90
23403;DHT22;11874;48.228;11.684;2022-12-13T13:45:00;-0.20;99.90
23403;DHT22;11874;48.228;11.684;2022-12-13T13:47:34;-0.20;99.90
23403;DHT22;11874;48.228;11.684;2022-12-13T13:50:30;-0.10;99.90
23403;DHT22;11874;48.228;11.684;2022-12-13T13:53:26;-0.20;99.90
23403;DHT22;11874;48.228;11.684;2022-12-13T13:56:06;-0.20;99.90
23403;DHT22;11874;48.228;11.684;2022-12-13T13:59:04;-0.40;99.90
23403;DHT22;11874;48.228;11.684;2022-12-13T14:05:30;-0.50;99.90
23403;DHT22;11874;48.228;11.684;2022-12-13T14:08:18;-0.70;99.90
23403;DHT22;11874;48.228;11.684;2022-12-13T14:11:36;-0.60;99.90
23403;DHT22;11874;48.228;11.684;2022-12-13T14:14:34;-0.70;99.90
23403;DHT22;11874;48.228;11.684;2022-12-13T14:20:43;-0.80;99.90
23403;DHT22;11874;48.228;11.684;2022-12-13T14:23:19;-0.90;99.90
23403;DHT22;11874;48.228;11.684;2022-12-13T14:26:08;-0.90;99.90
23403;DHT22;11874;48.228;11.684;2022-12-13T14:28:50;-0.90;99.90
23403;DHT22;11874;48.228;11.684;2022-12-13T14:31:22;-1.00;99.90
23403;DHT22;11874;48.228;11.684;2022-12-13T14:34:14;-1.10;99.90
23403;DHT22;11874;48.228;11.684;2022-12-13T14:36:43;-0.90;99.90
23403;DHT22;11874;48.228;11.684;2022-12-13T14:39:20;-1.10;99.90
23403;DHT22;11874;48.228;11.684;2022-12-13T14:41:52;-1.20;99.90
23403;DHT22;11874;48.228;11.684;2022-12-13T14:44:25;-1.30;99.90
23403;DHT22;11874;48.228;11.684;2022-12-13T14:46:54;-1.20;99.90
23403;DHT22;11874;48.228;11.684;2022-12-13T14:49:24;-1.30;99.90
23403;DHT22;11874;48.228;11.684;2022-12-13T14:51:55;-1.30;99.90
23403;DHT22;11874;48.228;11.684;2022-12-13T14:54:37;-1.50;99.90
23403;DHT22;11874;48.228;11.684;2022-12-13T14:57:15;-1.50;99.90
23403;DHT22;11874;48.228;11.684;2022-12-13T14:59:48;-1.50;99.90
23403;DHT22;11874;48.228;11.684;2022-12-13T15:02:20;-1.60;99.90
23403;DHT22;11874;48.228;11.684;2022-12-13T15:04:58;-1.70;99.90
23403;DHT22;11874;48.228;11.684;2022-12-13T15:07:29;-1.60;99.90
23403;DHT22;11874;48.228;11.684;2022-12-13T15:09:59;-1.70;99.90
23403;DHT22;11874;48.228;11.684;2022-12-13T15:12:28;-1.70;99.90
23403;DHT22;11874;48.228;11.684;2022-12-13T15:14:59;-1.50;99.90
23403;DHT22;11874;48.228;11.684;2022-12-13T15:17:31;-1.90;99.90
23403;DHT22;11874;48.228;11.684;2022-12-13T15:20:00;-1.80;99.90
23403;DHT22;11874;48.228;11.684;2022-12-13T15:22:28;-1.70;99.90
23403;DHT22;11874;48.228;11.684;2022-12-13T15:24:56;-1.60;99.90
23403;DHT22;11874;48.228;11.684;2022-12-13T15:27:24;-1.70;99.90
23403;DHT22;11874;48.228;11.684;2022-12-13T15:29:53;-1.80;99.90
23403;DHT22;11874;48.228;11.684;2022-12-13T15:34:51;-2.00;99.90
23403;DHT22;11874;48.228;11.684;2022-12-13T15:37:31;-2.00;99.90
23403;DHT22;11874;48.228;11.684;2022-12-13T15:40:04;-2.10;99.90
23403;DHT22;11874;48.228;11.684;2022-12-13T15:42:35;-2.10;99.90
23403;DHT22;11874;48.228;11.684;2022-12-13T15:45:05;-2.10;99.90
23403;DHT22;11874;48.228;11.684;2022-12-13T15:47:35;-2.20;99.90
23403;DHT22;11874;48.228;11.684;2022-12-13T15:50:05;-2.20;99.90
23403;DHT22;11874;48.228;11.684;2022-12-13T15:52:35;-2.20;99.90
23403;DHT22;11874;48.228;11.684;2022-12-13T15:55:25;-2.20;99.90
23403;DHT22;11874;48.228;11.684;2022-12-13T15:57:57;-2.20;99.90
23403;DHT22;11874;48.228;11.684;2022-12-13T16:00:27;-2.20;99.90
23403;DHT22;11874;48.228;11.684;2022-12-13T16:03:06;-2.20;99.90
23403;DHT22;11874;48.228;11.684;2022-12-13T16:05:40;-2.20;99.90
23403;DHT22;11874;48.228;11.684;2022-12-13T16:08:23;-2.20;99.90